createdAt,value
2022-09-10T00:02:11.193Z,18.78
2022-09-10T00:05:13.440Z,18.80
2022-09-10T00:08:16.937Z,18.93
2022-09-10T00:11:20.848Z,18.81
2022-09-10T00:14:23.873Z,18.81
2022-09-10T00:17:27.551Z,18.69
2022-09-10T00:20:29.745Z,18.73
2022-09-10T00:23:32.086Z,18.74
2022-09-10T00:26:39.187Z,18.76
2022-09-10T00:29:41.411Z,18.87
2022-09-10T00:32:43.675Z,18.88
2022-09-10T00:35:46.516Z,18.86
2022-09-10T00:38:50.515Z,18.74
2022-09-10T00:41:54.694Z,18.76
2022-09-10T00:45:00.707Z,18.90
2022-09-10T00:48:05.893Z,18.96
2022-09-10T00:51:08.203Z,18.76
2022-09-10T00:54:10.689Z,18.67
2022-09-10T00:57:19.608Z,18.59
2022-09-10T01:00:22.458Z,18.42
2022-09-10T01:03:25.673Z,18.20
2022-09-10T01:06:28.165Z,18.36
2022-09-10T01:09:30.323Z,18.44
2022-09-10T01:12:38.465Z,18.42
2022-09-10T01:16:19.086Z,18.49
2022-09-10T01:19:47.340Z,18.56
2022-09-10T01:23:07.802Z,18.67
2022-09-10T01:27:06.378Z,18.60
2022-09-10T01:30:15.580Z,18.48
2022-09-10T01:33:24.035Z,18.70
2022-09-10T01:36:30.588Z,18.50
2022-09-10T01:39:34.299Z,18.31
2022-09-10T01:42:39.672Z,18.28
2022-09-10T01:46:03.484Z,18.30
2022-09-10T01:49:16.392Z,18.43
2022-09-10T01:52:37.327Z,18.23
2022-09-10T01:56:00.012Z,18.27
2022-09-10T01:59:12.811Z,18.34
2022-09-10T02:05:54.991Z,18.35
2022-09-10T02:08:58.782Z,18.36
2022-09-10T02:12:01.908Z,18.35
2022-09-10T02:15:05.981Z,18.47
2022-09-10T02:18:08.335Z,18.56
2022-09-10T02:21:11.897Z,18.18
2022-09-10T02:24:14.173Z,18.12
2022-09-10T02:27:16.809Z,18.25
2022-09-10T02:30:20.267Z,18.31
2022-09-10T02:33:22.491Z,18.15
2022-09-10T02:36:26.242Z,18.26
2022-09-10T02:39:28.498Z,18.23
2022-09-10T02:42:30.711Z,18.23
2022-09-10T02:45:33.095Z,18.22
2022-09-10T02:48:35.328Z,17.91
2022-09-10T02:51:38.209Z,17.91
2022-09-10T02:54:40.398Z,17.87
2022-09-10T02:57:42.577Z,17.89
2022-09-10T03:00:45.641Z,17.81
2022-09-10T03:03:52.635Z,18.14
2022-09-10T03:06:55.417Z,18.02
2022-09-10T03:09:57.591Z,18.00
2022-09-10T03:13:00.432Z,18.00
2022-09-10T03:16:05.424Z,17.89
2022-09-10T03:19:07.707Z,17.76
2022-09-10T03:22:11.241Z,17.68
2022-09-10T03:25:13.436Z,17.53
2022-09-10T03:28:16.259Z,17.52
2022-09-10T03:31:18.671Z,17.22
2022-09-10T03:34:20.999Z,17.21
2022-09-10T03:37:24.137Z,17.18
2022-09-10T03:40:26.331Z,17.22
2022-09-10T03:43:28.974Z,17.23
2022-09-10T03:46:31.270Z,17.23
2022-09-10T03:49:33.496Z,17.20
2022-09-10T03:52:35.767Z,17.33
2022-09-10T03:55:38.155Z,17.39
2022-09-10T03:58:40.422Z,17.47
2022-09-10T04:01:43.101Z,17.19
2022-09-10T04:04:45.265Z,16.89
2022-09-10T04:07:47.739Z,16.83
2022-09-10T04:10:50.073Z,16.69
2022-09-10T04:13:52.912Z,16.71
2022-09-10T04:16:55.107Z,16.49
2022-09-10T04:19:57.307Z,16.40
2022-09-10T04:23:00.301Z,16.29
2022-09-10T04:26:11.760Z,16.19
2022-09-10T04:29:14.544Z,16.12
2022-09-10T04:32:16.704Z,16.14
2022-09-10T04:35:20.397Z,16.17
2022-09-10T04:38:22.593Z,16.25
2022-09-10T04:41:24.767Z,16.38
2022-09-10T04:44:27.877Z,16.49
2022-09-10T04:47:30.068Z,16.52
2022-09-10T04:50:32.232Z,16.56
2022-09-10T04:53:34.477Z,16.55
2022-09-10T04:56:36.678Z,16.62
2022-09-10T04:59:38.885Z,16.69
2022-09-10T05:02:41.117Z,16.71
2022-09-10T05:05:43.292Z,16.75
2022-09-10T05:08:45.487Z,16.61
2022-09-10T05:11:47.706Z,16.67
2022-09-10T05:14:49.895Z,16.48
2022-09-10T05:17:52.089Z,16.62
2022-09-10T05:20:54.776Z,16.67
2022-09-10T05:23:57.401Z,16.63
2022-09-10T05:26:59.593Z,16.68
2022-09-10T05:30:02.191Z,16.77
2022-09-10T05:33:04.564Z,16.68
2022-09-10T05:36:09.250Z,16.65
2022-09-10T05:39:11.490Z,16.68
2022-09-10T05:42:13.698Z,16.89
2022-09-10T05:45:16.026Z,17.11
2022-09-10T05:48:18.190Z,17.27
2022-09-10T05:51:20.436Z,17.45
2022-09-10T05:54:22.633Z,17.41
2022-09-10T05:57:24.836Z,17.51
2022-09-10T06:00:27.099Z,17.79
2022-09-10T06:03:29.293Z,17.76
2022-09-10T06:06:31.990Z,17.73
2022-09-10T06:09:34.218Z,17.54
2022-09-10T06:12:36.372Z,17.48
2022-09-10T06:15:40.822Z,17.40
2022-09-10T06:18:43.083Z,17.33
2022-09-10T06:21:46.900Z,17.40
2022-09-10T06:24:49.195Z,17.42
2022-09-10T06:27:51.456Z,17.14
2022-09-10T06:30:53.629Z,17.29
2022-09-10T06:33:55.838Z,17.33
2022-09-10T06:36:58.449Z,17.55
2022-09-10T06:40:01.316Z,17.86
2022-09-10T06:43:03.522Z,17.99
2022-09-10T06:46:50.802Z,18.02
2022-09-10T06:49:38.720Z,17.76
2022-09-10T06:52:40.905Z,17.70
2022-09-10T06:55:43.182Z,17.70
2022-09-10T06:58:46.089Z,17.95
2022-09-10T07:01:48.406Z,18.18
2022-09-10T07:04:50.583Z,18.36
2022-09-10T07:07:52.737Z,18.52
2022-09-10T07:10:59.951Z,18.67
2022-09-10T07:14:02.220Z,18.46
2022-09-10T07:17:04.421Z,17.77
2022-09-10T07:20:07.105Z,17.65
2022-09-10T07:23:13.660Z,17.73
2022-09-10T07:26:18.612Z,17.76
2022-09-10T07:29:20.819Z,17.63
2022-09-10T07:32:23.044Z,17.75
2022-09-10T07:35:25.567Z,18.05
2022-09-10T07:38:28.869Z,17.88
2022-09-10T07:41:33.969Z,17.91
2022-09-10T07:44:36.201Z,18.17
2022-09-10T07:47:38.472Z,18.25
2022-09-10T07:50:40.669Z,18.21
2022-09-10T07:53:50.339Z,18.27
2022-09-10T07:56:53.459Z,18.36
2022-09-10T07:59:55.619Z,18.06
2022-09-10T08:02:57.838Z,18.04
2022-09-10T08:06:03.804Z,18.27
2022-09-10T08:09:07.242Z,18.24
2022-09-10T08:12:09.957Z,18.28
2022-09-10T08:15:12.263Z,18.58
2022-09-10T08:18:14.761Z,18.71
2022-09-10T08:21:18.796Z,18.62
2022-09-10T08:24:20.960Z,18.71
2022-09-10T08:27:23.216Z,18.94
2022-09-10T08:30:25.479Z,18.89
2022-09-10T08:33:31.680Z,19.01
2022-09-10T08:36:33.845Z,18.93
2022-09-10T08:39:36.131Z,19.15
2022-09-10T08:42:43.052Z,19.42
2022-09-10T08:45:47.959Z,19.80
2022-09-10T08:48:55.343Z,19.73
2022-09-10T08:52:05.586Z,20.01
2022-09-10T08:55:16.887Z,20.46
2022-09-10T08:58:23.349Z,20.41
2022-09-10T09:01:40.558Z,20.11
2022-09-10T09:04:58.574Z,20.31
2022-09-10T09:08:00.829Z,20.26
2022-09-10T09:11:51.002Z,20.41
2022-09-10T09:14:53.180Z,20.71
2022-09-10T09:18:28.094Z,20.94
2022-09-10T09:21:52.416Z,20.58
2022-09-10T09:25:01.094Z,20.36
2022-09-10T09:28:05.430Z,20.37
2022-09-10T09:31:14.301Z,20.55
2022-09-10T09:34:20.696Z,20.76
2022-09-10T09:37:33.197Z,20.78
2022-09-10T09:40:41.538Z,20.83
2022-09-10T09:43:56.284Z,20.82
2022-09-10T09:46:58.541Z,20.85
2022-09-10T09:50:00.829Z,20.45
2022-09-10T09:53:03.030Z,20.50
2022-09-10T09:56:13.020Z,20.32
2022-09-10T09:59:32.354Z,20.43
2022-09-10T10:02:37.014Z,20.27
2022-09-10T10:05:39.261Z,20.68
2022-09-10T10:08:47.194Z,21.12
2022-09-10T10:11:55.738Z,21.15
2022-09-10T10:14:59.248Z,21.43
2022-09-10T10:18:24.572Z,21.48
2022-09-10T10:21:31.830Z,21.47
2022-09-10T10:24:35.002Z,22.03
2022-09-10T10:27:41.973Z,22.23
2022-09-10T10:30:44.737Z,21.81
2022-09-10T10:33:49.877Z,21.53
2022-09-10T10:37:25.125Z,21.59
2022-09-10T10:40:32.235Z,21.52
2022-09-10T10:43:47.292Z,21.56
2022-09-10T10:47:04.448Z,21.45
2022-09-10T10:50:22.063Z,21.42
2022-09-10T10:53:30.320Z,21.62
2022-09-10T10:56:40.591Z,21.75
2022-09-10T11:00:02.223Z,21.49
2022-09-10T11:03:42.819Z,21.38
2022-09-10T11:06:48.458Z,21.85
2022-09-10T11:10:20.997Z,22.22
2022-09-10T11:13:27.227Z,22.19
2022-09-10T11:16:41.512Z,22.26
2022-09-10T11:20:27.743Z,21.93
2022-09-10T11:24:00.323Z,21.92
2022-09-10T11:27:09.900Z,22.70
2022-09-10T11:30:16.976Z,22.83
2022-09-10T11:33:33.416Z,22.78
2022-09-10T11:36:43.206Z,22.88
2022-09-10T11:39:50.631Z,22.79
2022-09-10T11:42:56.555Z,22.92
2022-09-10T11:46:03.147Z,23.15
2022-09-10T11:49:34.719Z,23.25
2022-09-10T11:52:37.479Z,23.53
2022-09-10T11:55:51.947Z,23.65
2022-09-10T11:59:18.410Z,23.53
2022-09-10T12:02:39.218Z,23.57
2022-09-10T12:06:09.588Z,23.42
2022-09-10T12:09:19.905Z,23.05
2022-09-10T12:12:43.262Z,22.30
2022-09-10T12:15:56.099Z,22.55
2022-09-10T12:18:58.781Z,22.89
2022-09-10T12:22:06.554Z,23.10
2022-09-10T12:25:33.891Z,23.11
2022-09-10T12:28:42.574Z,23.21
2022-09-10T12:32:07.837Z,23.06
2022-09-10T12:35:32.695Z,23.23
2022-09-10T12:38:50.414Z,22.98
2022-09-10T12:41:55.550Z,23.21
2022-09-10T12:44:58.064Z,23.18
2022-09-10T12:48:02.424Z,23.36
2022-09-10T12:51:19.116Z,23.64
2022-09-10T12:54:29.718Z,23.76
2022-09-10T12:57:37.866Z,24.07
2022-09-10T13:01:24.458Z,24.31
2022-09-10T13:04:34.807Z,24.18
2022-09-10T13:07:40.294Z,23.78
2022-09-10T13:10:44.382Z,23.34
2022-09-10T13:13:56.446Z,23.26
2022-09-10T13:16:58.656Z,23.20
2022-09-10T13:20:32.841Z,23.22
2022-09-10T13:23:45.052Z,23.39
2022-09-10T13:26:49.497Z,23.51
2022-09-10T13:30:09.918Z,23.68
2022-09-10T13:33:17.704Z,23.50
2022-09-10T13:36:34.397Z,23.51
2022-09-10T13:39:39.578Z,23.56
2022-09-10T13:43:06.510Z,23.50
2022-09-10T13:46:14.796Z,23.37
2022-09-10T13:49:29.879Z,23.40
2022-09-10T13:52:36.169Z,23.24
2022-09-10T13:55:38.600Z,23.21
2022-09-10T13:58:47.200Z,23.29
2022-09-10T14:01:54.578Z,23.35
2022-09-10T14:04:56.836Z,23.34
2022-09-10T14:08:02.338Z,23.35
2022-09-10T14:11:13.888Z,23.35
2022-09-10T14:14:25.512Z,23.52
2022-09-10T14:17:35.560Z,23.25
2022-09-10T14:20:39.233Z,22.80
2022-09-10T14:23:46.100Z,22.74
2022-09-10T14:27:05.533Z,22.64
2022-09-10T14:30:22.048Z,22.70
2022-09-10T14:33:35.875Z,22.89
2022-09-10T14:36:38.058Z,22.95
2022-09-10T14:39:44.253Z,22.87
2022-09-10T14:42:48.245Z,22.74
2022-09-10T14:45:50.397Z,22.86
2022-09-10T14:48:58.780Z,22.82
2022-09-10T14:52:02.071Z,22.79
2022-09-10T14:55:04.475Z,22.66
2022-09-10T14:58:06.651Z,22.86
2022-09-10T15:01:09.371Z,22.73
2022-09-10T15:04:17.362Z,22.59
2022-09-10T15:07:19.678Z,22.49
2022-09-10T15:10:21.914Z,22.68
2022-09-10T15:13:24.476Z,22.72
2022-09-10T15:16:27.627Z,22.78
2022-09-10T15:19:30.339Z,22.63
2022-09-10T15:22:32.645Z,22.54
2022-09-10T15:25:45.029Z,22.56
2022-09-10T15:28:47.407Z,22.34
2022-09-10T15:31:51.188Z,22.30
2022-09-10T15:34:53.350Z,22.32
2022-09-10T15:37:55.544Z,22.33
2022-09-10T15:41:12.972Z,22.13
2022-09-10T15:44:15.340Z,22.15
2022-09-10T15:47:17.529Z,22.16
2022-09-10T15:50:19.776Z,22.09
2022-09-10T15:53:21.955Z,22.00
2022-09-10T15:56:26.603Z,21.96
2022-09-10T15:59:28.790Z,21.77
2022-09-10T16:02:30.980Z,21.75
2022-09-10T16:05:35.305Z,21.72
2022-09-10T16:08:37.634Z,21.73
2022-09-10T16:11:42.127Z,21.84
2022-09-10T16:14:45.293Z,21.84
2022-09-10T16:17:47.462Z,21.74
2022-09-10T16:20:49.838Z,21.72
2022-09-10T16:23:54.860Z,21.67
2022-09-10T16:26:57.115Z,21.59
2022-09-10T16:29:59.355Z,21.47
2022-09-10T16:33:01.536Z,21.41
2022-09-10T16:36:05.274Z,21.32
2022-09-10T16:39:12.418Z,21.22
2022-09-10T16:42:15.109Z,21.14
2022-09-10T16:45:17.361Z,21.12
2022-09-10T16:48:19.537Z,20.99
2022-09-10T16:51:23.729Z,20.82
2022-09-10T16:54:26.633Z,20.74
2022-09-10T16:57:29.331Z,20.68
2022-09-10T17:00:31.847Z,20.63
2022-09-10T17:03:34.046Z,20.59
2022-09-10T17:06:36.854Z,20.52
2022-09-10T17:09:39.109Z,20.36
2022-09-10T17:12:43.260Z,20.24
2022-09-10T17:15:45.525Z,20.06
2022-09-10T17:18:48.496Z,20.08
2022-09-10T17:21:52.970Z,20.08
2022-09-10T17:24:56.124Z,19.97
2022-09-10T17:27:59.001Z,19.93
2022-09-10T17:31:01.461Z,19.85
2022-09-10T17:34:04.178Z,19.66
2022-09-10T17:37:06.362Z,19.61
2022-09-10T17:40:11.804Z,19.58
2022-09-10T17:43:15.451Z,19.46
2022-09-10T17:46:19.786Z,19.40
2022-09-10T17:49:22.131Z,19.37
2022-09-10T17:52:25.063Z,19.35
2022-09-10T17:55:33.009Z,19.28
2022-09-10T17:58:36.394Z,19.25
2022-09-10T18:01:39.065Z,19.14
2022-09-10T18:04:41.944Z,19.14
2022-09-10T18:07:45.781Z,19.21
2022-09-10T18:10:48.666Z,19.12
2022-09-10T18:13:52.680Z,19.02
2022-09-10T18:16:56.401Z,19.00
2022-09-10T18:19:58.535Z,18.83
2022-09-10T18:23:01.129Z,18.71
2022-09-10T18:26:30.889Z,18.66
2022-09-10T18:29:33.315Z,18.49
2022-09-10T18:32:35.766Z,18.44
2022-09-10T18:35:37.914Z,18.42
2022-09-10T18:38:41.033Z,18.15
2022-09-10T18:41:43.596Z,18.00
2022-09-10T18:44:45.795Z,17.83
2022-09-10T18:47:47.997Z,17.70
2022-09-10T18:50:50.145Z,17.59
2022-09-10T18:53:54.105Z,17.62
2022-09-10T18:56:57.323Z,17.59
2022-09-10T19:00:00.449Z,17.65
2022-09-10T19:03:02.671Z,17.65
2022-09-10T19:06:08.187Z,17.67
2022-09-10T19:09:16.083Z,17.68
2022-09-10T19:12:19.338Z,17.66
2022-09-10T19:15:22.175Z,17.67
2022-09-10T19:18:24.425Z,17.58
2022-09-10T19:21:27.924Z,17.33
2022-09-10T19:24:53.593Z,17.14
2022-09-10T19:27:53.008Z,17.20
2022-09-10T19:31:01.428Z,17.23
2022-09-10T19:34:05.888Z,17.27
2022-09-10T19:37:08.050Z,16.97
2022-09-10T19:40:11.952Z,16.89
2022-09-10T19:43:14.197Z,16.88
2022-09-10T19:46:18.630Z,16.98
2022-09-10T19:49:21.689Z,16.92
2022-09-10T19:52:25.610Z,17.01
2022-09-10T19:55:27.760Z,17.01
2022-09-10T19:58:29.943Z,16.99
2022-09-10T20:01:32.966Z,17.04
2022-09-10T20:04:35.714Z,17.02
2022-09-10T20:07:37.856Z,16.97
2022-09-10T20:10:40.227Z,16.90
2022-09-10T20:13:42.968Z,16.85
2022-09-10T20:16:45.661Z,16.54
2022-09-10T20:19:47.857Z,16.53
2022-09-10T20:22:50.051Z,16.21
2022-09-10T20:25:52.233Z,16.19
2022-09-10T20:29:00.716Z,16.00
2022-09-10T20:32:03.070Z,16.12
2022-09-10T20:35:05.668Z,16.08
2022-09-10T20:38:07.827Z,16.03
2022-09-10T20:41:14.251Z,16.01
2022-09-10T20:44:16.942Z,15.92
2022-09-10T20:47:19.147Z,15.92
2022-09-10T20:50:21.341Z,15.94
2022-09-10T20:53:23.591Z,16.03
2022-09-10T20:56:26.028Z,16.11
2022-09-10T20:59:29.242Z,16.15
2022-09-10T21:02:31.702Z,16.24
2022-09-10T21:05:34.013Z,16.11
2022-09-10T21:08:37.662Z,16.07
2022-09-10T21:11:39.893Z,16.07
2022-09-10T21:14:42.072Z,16.11
2022-09-10T21:17:45.076Z,16.05
2022-09-10T21:20:47.288Z,16.12
2022-09-10T21:23:51.513Z,16.27
2022-09-10T21:26:53.736Z,16.34
2022-09-10T21:29:55.909Z,16.30
2022-09-10T21:32:58.099Z,16.26
2022-09-10T21:36:10.084Z,16.23
2022-09-10T21:39:17.418Z,16.16
2022-09-10T21:42:19.611Z,16.26
2022-09-10T21:45:26.057Z,16.27
2022-09-10T21:48:30.183Z,16.22
2022-09-10T21:51:32.496Z,16.10
2022-09-10T21:54:36.556Z,16.03
2022-09-10T21:57:39.479Z,15.92
2022-09-10T22:00:41.682Z,15.94
2022-09-10T22:03:45.763Z,15.92
2022-09-10T22:06:48.488Z,15.97
2022-09-10T22:09:50.675Z,15.87
2022-09-10T22:12:53.067Z,15.94
2022-09-10T22:15:57.067Z,15.96
2022-09-10T22:19:01.530Z,15.93
2022-09-10T22:22:03.718Z,15.75
2022-09-10T22:25:06.480Z,15.75
2022-09-10T22:28:08.684Z,15.77
2022-09-10T22:31:14.158Z,15.77
2022-09-10T22:34:17.425Z,15.87
2022-09-10T22:37:19.634Z,15.89
2022-09-10T22:40:23.901Z,15.93
2022-09-10T22:43:26.046Z,15.97
2022-09-10T22:46:29.156Z,16.03
2022-09-10T22:49:31.350Z,15.97
2022-09-10T22:52:34.263Z,15.92
2022-09-10T22:55:36.469Z,15.90
2022-09-10T22:58:39.635Z,15.77
2022-09-10T23:01:43.399Z,15.75
2022-09-10T23:04:45.652Z,15.67
2022-09-10T23:07:49.572Z,15.50
2022-09-10T23:10:52.113Z,15.39
2022-09-10T23:13:57.510Z,15.28
2022-09-10T23:16:59.724Z,15.27
2022-09-10T23:20:02.100Z,15.32
2022-09-10T23:23:04.323Z,15.42
2022-09-10T23:26:08.932Z,15.42
2022-09-10T23:29:12.556Z,15.46
2022-09-10T23:32:14.726Z,15.44
2022-09-10T23:35:17.216Z,15.53
2022-09-10T23:38:19.437Z,15.46
2022-09-10T23:41:21.659Z,15.51
2022-09-10T23:44:24.576Z,15.48
2022-09-10T23:47:27.054Z,15.34
2022-09-10T23:50:29.598Z,15.38
2022-09-10T23:53:32.248Z,15.44
2022-09-10T23:56:34.614Z,15.43
2022-09-10T23:59:36.779Z,15.48
